sensor_id;sensor_type;location;lat;lon;timestamp;P1;durP1;ratioP1;P2;durP2;ratioP2
14116;SDS011;7137;51.436;6.544;2022-07-29T00:01:47;3.50;;;1.30;;
14116;SDS011;7137;51.436;6.544;2022-07-29T00:04:50;4.53;;;1.20;;
14116;SDS011;7137;51.436;6.544;2022-07-29T00:07:51;3.57;;;1.30;;
14116;SDS011;7137;51.436;6.544;2022-07-29T00:10:53;4.20;;;1.40;;
14116;SDS011;7137;51.436;6.544;2022-07-29T00:13:55;2.80;;;1.27;;
14116;SDS011;7137;51.436;6.544;2022-07-29T00:16:58;4.53;;;1.30;;
14116;SDS011;7137;51.436;6.544;2022-07-29T00:20:00;5.27;;;1.23;;
14116;SDS011;7137;51.436;6.544;2022-07-29T00:23:02;6.27;;;1.30;;
14116;SDS011;7137;51.436;6.544;2022-07-29T00:26:03;5.23;;;1.30;;
14116;SDS011;7137;51.436;6.544;2022-07-29T00:29:05;4.37;;;1.23;;
14116;SDS011;7137;51.436;6.544;2022-07-29T00:32:08;4.27;;;1.30;;
14116;SDS011;7137;51.436;6.544;2022-07-29T00:35:09;3.33;;;1.10;;
14116;SDS011;7137;51.436;6.544;2022-07-29T00:38:29;4.47;;;1.40;;
14116;SDS011;7137;51.436;6.544;2022-07-29T00:41:30;6.00;;;1.50;;
14116;SDS011;7137;51.436;6.544;2022-07-29T00:44:35;3.37;;;1.40;;
14116;SDS011;7137;51.436;6.544;2022-07-29T00:47:39;3.77;;;1.20;;
14116;SDS011;7137;51.436;6.544;2022-07-29T00:50:41;5.90;;;1.30;;
14116;SDS011;7137;51.436;6.544;2022-07-29T00:53:43;3.93;;;1.47;;
14116;SDS011;7137;51.436;6.544;2022-07-29T00:56:46;5.73;;;1.20;;
14116;SDS011;7137;51.436;6.544;2022-07-29T00:59:47;4.10;;;1.30;;
14116;SDS011;7137;51.436;6.544;2022-07-29T01:02:51;4.83;;;1.20;;
14116;SDS011;7137;51.436;6.544;2022-07-29T01:05:53;5.73;;;1.33;;
14116;SDS011;7137;51.436;6.544;2022-07-29T01:08:55;3.00;;;1.10;;
14116;SDS011;7137;51.436;6.544;2022-07-29T01:11:58;3.50;;;1.30;;
14116;SDS011;7137;51.436;6.544;2022-07-29T01:15:00;2.53;;;1.17;;
14116;SDS011;7137;51.436;6.544;2022-07-29T01:18:05;3.10;;;0.90;;
14116;SDS011;7137;51.436;6.544;2022-07-29T01:21:17;6.50;;;1.30;;
14116;SDS011;7137;51.436;6.544;2022-07-29T01:24:39;4.30;;;1.10;;
14116;SDS011;7137;51.436;6.544;2022-07-29T01:28:01;3.80;;;1.20;;
14116;SDS011;7137;51.436;6.544;2022-07-29T01:31:20;4.83;;;1.53;;
14116;SDS011;7137;51.436;6.544;2022-07-29T01:38:22;5.13;;;1.20;;
14116;SDS011;7137;51.436;6.544;2022-07-29T01:41:29;3.03;;;1.20;;
14116;SDS011;7137;51.436;6.544;2022-07-29T01:44:35;5.17;;;1.20;;
14116;SDS011;7137;51.436;6.544;2022-07-29T01:47:44;3.50;;;1.20;;
14116;SDS011;7137;51.436;6.544;2022-07-29T01:50:57;3.80;;;1.10;;
14116;SDS011;7137;51.436;6.544;2022-07-29T01:54:04;3.50;;;1.20;;
14116;SDS011;7137;51.436;6.544;2022-07-29T01:57:13;3.93;;;1.20;;
14116;SDS011;7137;51.436;6.544;2022-07-29T02:04:17;3.53;;;1.27;;
14116;SDS011;7137;51.436;6.544;2022-07-29T02:07:21;3.37;;;1.10;;
14116;SDS011;7137;51.436;6.544;2022-07-29T02:10:25;4.27;;;1.20;;
14116;SDS011;7137;51.436;6.544;2022-07-29T02:13:29;6.07;;;1.30;;
14116;SDS011;7137;51.436;6.544;2022-07-29T02:16:32;3.93;;;1.50;;
14116;SDS011;7137;51.436;6.544;2022-07-29T02:19:38;4.57;;;1.30;;
14116;SDS011;7137;51.436;6.544;2022-07-29T02:22:42;4.23;;;1.50;;
14116;SDS011;7137;51.436;6.544;2022-07-29T02:25:46;4.53;;;1.27;;
14116;SDS011;7137;51.436;6.544;2022-07-29T02:28:50;3.67;;;1.00;;
14116;SDS011;7137;51.436;6.544;2022-07-29T02:31:54;4.40;;;1.20;;
14116;SDS011;7137;51.436;6.544;2022-07-29T02:35:01;2.67;;;1.07;;
14116;SDS011;7137;51.436;6.544;2022-07-29T02:38:04;4.57;;;1.20;;
14116;SDS011;7137;51.436;6.544;2022-07-29T02:41:33;4.80;;;1.63;;
14116;SDS011;7137;51.436;6.544;2022-07-29T02:44:40;5.13;;;1.53;;
14116;SDS011;7137;51.436;6.544;2022-07-29T02:47:42;3.10;;;1.30;;
14116;SDS011;7137;51.436;6.544;2022-07-29T02:50:48;3.50;;;1.30;;
14116;SDS011;7137;51.436;6.544;2022-07-29T02:53:53;7.50;;;1.73;;
14116;SDS011;7137;51.436;6.544;2022-07-29T02:56:58;4.23;;;1.50;;
14116;SDS011;7137;51.436;6.544;2022-07-29T03:00:05;4.57;;;1.33;;
14116;SDS011;7137;51.436;6.544;2022-07-29T03:03:11;4.13;;;1.30;;
14116;SDS011;7137;51.436;6.544;2022-07-29T03:06:17;4.03;;;1.10;;
14116;SDS011;7137;51.436;6.544;2022-07-29T03:09:21;3.70;;;1.10;;
14116;SDS011;7137;51.436;6.544;2022-07-29T03:12:24;4.27;;;1.30;;
14116;SDS011;7137;51.436;6.544;2022-07-29T03:15:28;3.77;;;1.43;;
14116;SDS011;7137;51.436;6.544;2022-07-29T03:18:31;2.77;;;1.20;;
14116;SDS011;7137;51.436;6.544;2022-07-29T03:21:34;3.97;;;1.10;;
14116;SDS011;7137;51.436;6.544;2022-07-29T03:24:36;2.97;;;1.20;;
14116;SDS011;7137;51.436;6.544;2022-07-29T03:27:38;5.47;;;1.07;;
14116;SDS011;7137;51.436;6.544;2022-07-29T03:30:40;4.20;;;1.30;;
14116;SDS011;7137;51.436;6.544;2022-07-29T03:33:41;3.63;;;1.30;;
14116;SDS011;7137;51.436;6.544;2022-07-29T03:36:44;5.03;;;1.20;;
14116;SDS011;7137;51.436;6.544;2022-07-29T03:39:46;3.13;;;1.27;;
14116;SDS011;7137;51.436;6.544;2022-07-29T03:42:50;2.97;;;1.20;;
14116;SDS011;7137;51.436;6.544;2022-07-29T03:45:54;2.40;;;0.90;;
14116;SDS011;7137;51.436;6.544;2022-07-29T03:48:58;3.87;;;1.20;;
14116;SDS011;7137;51.436;6.544;2022-07-29T03:52:03;3.67;;;1.10;;
14116;SDS011;7137;51.436;6.544;2022-07-29T03:55:06;4.27;;;1.30;;
14116;SDS011;7137;51.436;6.544;2022-07-29T03:58:09;2.80;;;1.33;;
14116;SDS011;7137;51.436;6.544;2022-07-29T04:01:13;4.20;;;1.37;;
14116;SDS011;7137;51.436;6.544;2022-07-29T04:04:17;4.67;;;1.47;;
14116;SDS011;7137;51.436;6.544;2022-07-29T04:07:20;4.00;;;1.30;;
14116;SDS011;7137;51.436;6.544;2022-07-29T04:10:22;2.97;;;1.30;;
14116;SDS011;7137;51.436;6.544;2022-07-29T04:13:24;4.37;;;1.80;;
14116;SDS011;7137;51.436;6.544;2022-07-29T04:16:25;5.47;;;1.70;;
14116;SDS011;7137;51.436;6.544;2022-07-29T04:19:27;3.87;;;1.53;;
14116;SDS011;7137;51.436;6.544;2022-07-29T04:22:30;5.57;;;1.73;;
14116;SDS011;7137;51.436;6.544;2022-07-29T04:25:31;5.37;;;1.83;;
14116;SDS011;7137;51.436;6.544;2022-07-29T04:28:33;4.97;;;1.83;;
14116;SDS011;7137;51.436;6.544;2022-07-29T04:31:34;4.47;;;1.70;;
14116;SDS011;7137;51.436;6.544;2022-07-29T04:34:37;4.97;;;2.00;;
14116;SDS011;7137;51.436;6.544;2022-07-29T04:37:40;5.10;;;2.00;;
14116;SDS011;7137;51.436;6.544;2022-07-29T04:40:42;6.63;;;2.40;;
14116;SDS011;7137;51.436;6.544;2022-07-29T04:43:44;4.83;;;2.53;;
14116;SDS011;7137;51.436;6.544;2022-07-29T04:46:46;6.17;;;2.07;;
14116;SDS011;7137;51.436;6.544;2022-07-29T04:49:47;6.07;;;2.60;;
14116;SDS011;7137;51.436;6.544;2022-07-29T04:52:50;6.40;;;2.57;;
14116;SDS011;7137;51.436;6.544;2022-07-29T04:55:52;7.27;;;3.00;;
14116;SDS011;7137;51.436;6.544;2022-07-29T04:58:53;7.33;;;2.60;;
14116;SDS011;7137;51.436;6.544;2022-07-29T05:01:55;5.80;;;2.80;;
14116;SDS011;7137;51.436;6.544;2022-07-29T05:04:57;6.67;;;2.67;;
14116;SDS011;7137;51.436;6.544;2022-07-29T05:08:00;6.40;;;3.10;;
14116;SDS011;7137;51.436;6.544;2022-07-29T05:11:01;8.87;;;3.00;;
14116;SDS011;7137;51.436;6.544;2022-07-29T05:14:04;7.03;;;3.43;;
14116;SDS011;7137;51.436;6.544;2022-07-29T05:17:06;8.40;;;3.77;;
14116;SDS011;7137;51.436;6.544;2022-07-29T05:20:08;6.83;;;3.50;;
14116;SDS011;7137;51.436;6.544;2022-07-29T05:23:12;6.07;;;3.23;;
14116;SDS011;7137;51.436;6.544;2022-07-29T05:26:14;5.77;;;3.20;;
14116;SDS011;7137;51.436;6.544;2022-07-29T05:29:16;7.50;;;3.50;;
14116;SDS011;7137;51.436;6.544;2022-07-29T05:32:17;7.00;;;2.93;;
14116;SDS011;7137;51.436;6.544;2022-07-29T05:35:19;7.03;;;2.97;;
14116;SDS011;7137;51.436;6.544;2022-07-29T05:38:22;5.87;;;3.03;;
14116;SDS011;7137;51.436;6.544;2022-07-29T05:41:23;6.47;;;2.77;;
14116;SDS011;7137;51.436;6.544;2022-07-29T05:44:25;6.17;;;3.17;;
14116;SDS011;7137;51.436;6.544;2022-07-29T05:47:27;6.10;;;2.73;;
14116;SDS011;7137;51.436;6.544;2022-07-29T05:50:28;8.37;;;3.00;;
14116;SDS011;7137;51.436;6.544;2022-07-29T05:53:31;5.87;;;2.97;;
14116;SDS011;7137;51.436;6.544;2022-07-29T05:56:33;5.93;;;3.07;;
14116;SDS011;7137;51.436;6.544;2022-07-29T05:59:36;5.97;;;2.80;;
14116;SDS011;7137;51.436;6.544;2022-07-29T06:02:38;5.40;;;3.03;;
14116;SDS011;7137;51.436;6.544;2022-07-29T06:05:40;9.30;;;3.20;;
14116;SDS011;7137;51.436;6.544;2022-07-29T06:08:42;7.13;;;2.90;;
14116;SDS011;7137;51.436;6.544;2022-07-29T06:11:44;6.33;;;3.37;;
14116;SDS011;7137;51.436;6.544;2022-07-29T06:14:46;5.00;;;3.13;;
14116;SDS011;7137;51.436;6.544;2022-07-29T06:17:47;5.70;;;3.20;;
14116;SDS011;7137;51.436;6.544;2022-07-29T06:20:49;4.80;;;3.03;;
14116;SDS011;7137;51.436;6.544;2022-07-29T06:23:52;6.83;;;3.37;;
14116;SDS011;7137;51.436;6.544;2022-07-29T06:26:53;6.43;;;3.23;;
14116;SDS011;7137;51.436;6.544;2022-07-29T06:29:55;6.63;;;3.00;;
14116;SDS011;7137;51.436;6.544;2022-07-29T06:32:57;4.23;;;2.67;;
14116;SDS011;7137;51.436;6.544;2022-07-29T06:36:00;5.77;;;2.60;;
14116;SDS011;7137;51.436;6.544;2022-07-29T06:39:06;4.70;;;2.57;;
14116;SDS011;7137;51.436;6.544;2022-07-29T06:42:07;5.40;;;2.97;;
14116;SDS011;7137;51.436;6.544;2022-07-29T06:45:10;5.10;;;2.80;;
14116;SDS011;7137;51.436;6.544;2022-07-29T06:48:12;5.00;;;2.53;;
14116;SDS011;7137;51.436;6.544;2022-07-29T06:51:14;5.83;;;2.60;;
14116;SDS011;7137;51.436;6.544;2022-07-29T06:54:17;5.53;;;2.70;;
14116;SDS011;7137;51.436;6.544;2022-07-29T06:57:19;4.90;;;2.87;;
14116;SDS011;7137;51.436;6.544;2022-07-29T07:00:21;7.70;;;3.27;;
14116;SDS011;7137;51.436;6.544;2022-07-29T07:03:22;6.60;;;3.87;;
14116;SDS011;7137;51.436;6.544;2022-07-29T07:06:24;5.60;;;3.40;;
14116;SDS011;7137;51.436;6.544;2022-07-29T07:09:27;6.40;;;3.87;;
14116;SDS011;7137;51.436;6.544;2022-07-29T07:12:29;4.80;;;3.60;;
14116;SDS011;7137;51.436;6.544;2022-07-29T07:15:30;5.53;;;3.30;;
14116;SDS011;7137;51.436;6.544;2022-07-29T07:18:32;6.43;;;3.73;;
14116;SDS011;7137;51.436;6.544;2022-07-29T07:21:34;5.80;;;3.50;;
14116;SDS011;7137;51.436;6.544;2022-07-29T07:24:37;6.23;;;3.43;;
14116;SDS011;7137;51.436;6.544;2022-07-29T07:27:38;5.37;;;3.47;;
14116;SDS011;7137;51.436;6.544;2022-07-29T07:30:40;7.37;;;3.50;;
14116;SDS011;7137;51.436;6.544;2022-07-29T07:33:41;6.27;;;3.70;;
14116;SDS011;7137;51.436;6.544;2022-07-29T07:36:43;4.77;;;3.40;;
14116;SDS011;7137;51.436;6.544;2022-07-29T07:39:46;5.77;;;3.83;;
14116;SDS011;7137;51.436;6.544;2022-07-29T07:42:47;7.67;;;4.57;;
14116;SDS011;7137;51.436;6.544;2022-07-29T07:45:49;5.63;;;4.03;;
14116;SDS011;7137;51.436;6.544;2022-07-29T07:48:51;5.70;;;3.70;;
14116;SDS011;7137;51.436;6.544;2022-07-29T07:51:52;6.33;;;3.90;;
14116;SDS011;7137;51.436;6.544;2022-07-29T07:54:55;6.73;;;3.90;;
14116;SDS011;7137;51.436;6.544;2022-07-29T07:57:57;4.93;;;3.57;;
14116;SDS011;7137;51.436;6.544;2022-07-29T08:00:58;7.53;;;4.03;;
14116;SDS011;7137;51.436;6.544;2022-07-29T08:04:00;5.80;;;3.80;;
14116;SDS011;7137;51.436;6.544;2022-07-29T08:07:01;6.37;;;4.00;;
14116;SDS011;7137;51.436;6.544;2022-07-29T08:10:05;8.33;;;4.60;;
14116;SDS011;7137;51.436;6.544;2022-07-29T08:13:07;7.10;;;4.27;;
14116;SDS011;7137;51.436;6.544;2022-07-29T08:16:10;6.47;;;4.37;;
14116;SDS011;7137;51.436;6.544;2022-07-29T08:19:12;9.43;;;5.47;;
14116;SDS011;7137;51.436;6.544;2022-07-29T08:22:14;8.47;;;5.50;;
14116;SDS011;7137;51.436;6.544;2022-07-29T08:25:17;8.37;;;5.80;;
14116;SDS011;7137;51.436;6.544;2022-07-29T08:28:20;7.37;;;5.87;;
14116;SDS011;7137;51.436;6.544;2022-07-29T08:31:21;8.00;;;5.40;;
14116;SDS011;7137;51.436;6.544;2022-07-29T08:34:23;7.87;;;5.50;;
14116;SDS011;7137;51.436;6.544;2022-07-29T08:37:25;9.23;;;5.87;;
14116;SDS011;7137;51.436;6.544;2022-07-29T08:40:27;6.70;;;4.93;;
14116;SDS011;7137;51.436;6.544;2022-07-29T08:43:29;8.63;;;5.00;;
14116;SDS011;7137;51.436;6.544;2022-07-29T08:46:32;7.80;;;4.90;;
14116;SDS011;7137;51.436;6.544;2022-07-29T08:49:34;7.50;;;5.30;;
14116;SDS011;7137;51.436;6.544;2022-07-29T08:52:37;7.33;;;4.90;;
14116;SDS011;7137;51.436;6.544;2022-07-29T08:55:41;10.07;;;5.13;;
14116;SDS011;7137;51.436;6.544;2022-07-29T08:58:44;6.77;;;4.40;;
14116;SDS011;7137;51.436;6.544;2022-07-29T09:01:47;7.70;;;4.37;;
14116;SDS011;7137;51.436;6.544;2022-07-29T09:04:49;6.00;;;4.20;;
14116;SDS011;7137;51.436;6.544;2022-07-29T09:07:51;6.87;;;4.10;;
14116;SDS011;7137;51.436;6.544;2022-07-29T09:10:54;5.67;;;3.57;;
14116;SDS011;7137;51.436;6.544;2022-07-29T09:13:56;6.43;;;3.97;;
14116;SDS011;7137;51.436;6.544;2022-07-29T09:16:58;8.50;;;4.00;;
14116;SDS011;7137;51.436;6.544;2022-07-29T09:20:00;7.30;;;3.80;;
14116;SDS011;7137;51.436;6.544;2022-07-29T09:23:11;7.23;;;3.83;;
14116;SDS011;7137;51.436;6.544;2022-07-29T09:26:15;7.07;;;4.00;;
14116;SDS011;7137;51.436;6.544;2022-07-29T09:29:17;8.23;;;3.37;;
14116;SDS011;7137;51.436;6.544;2022-07-29T09:32:19;7.30;;;3.70;;
14116;SDS011;7137;51.436;6.544;2022-07-29T09:35:21;7.77;;;4.40;;
14116;SDS011;7137;51.436;6.544;2022-07-29T09:38:24;13.13;;;6.30;;
14116;SDS011;7137;51.436;6.544;2022-07-29T09:41:27;7.73;;;4.50;;
14116;SDS011;7137;51.436;6.544;2022-07-29T09:47:48;8.10;;;4.13;;
14116;SDS011;7137;51.436;6.544;2022-07-29T09:50:50;9.13;;;4.43;;
14116;SDS011;7137;51.436;6.544;2022-07-29T09:53:53;8.07;;;4.50;;
14116;SDS011;7137;51.436;6.544;2022-07-29T09:56:57;9.23;;;4.50;;
14116;SDS011;7137;51.436;6.544;2022-07-29T09:59:59;9.73;;;5.20;;
14116;SDS011;7137;51.436;6.544;2022-07-29T10:03:01;6.67;;;4.23;;
14116;SDS011;7137;51.436;6.544;2022-07-29T10:06:04;8.87;;;4.00;;
14116;SDS011;7137;51.436;6.544;2022-07-29T10:09:07;7.67;;;3.63;;
14116;SDS011;7137;51.436;6.544;2022-07-29T10:12:11;7.10;;;4.50;;
14116;SDS011;7137;51.436;6.544;2022-07-29T10:15:14;6.57;;;4.93;;
14116;SDS011;7137;51.436;6.544;2022-07-29T10:18:16;5.87;;;4.60;;
14116;SDS011;7137;51.436;6.544;2022-07-29T10:21:19;10.13;;;5.63;;
14116;SDS011;7137;51.436;6.544;2022-07-29T10:24:22;8.83;;;5.73;;
14116;SDS011;7137;51.436;6.544;2022-07-29T10:27:26;7.57;;;5.50;;
14116;SDS011;7137;51.436;6.544;2022-07-29T10:30:28;7.07;;;5.00;;
14116;SDS011;7137;51.436;6.544;2022-07-29T10:33:34;7.87;;;4.47;;
14116;SDS011;7137;51.436;6.544;2022-07-29T10:36:48;7.03;;;4.20;;
14116;SDS011;7137;51.436;6.544;2022-07-29T10:39:59;6.80;;;4.83;;
14116;SDS011;7137;51.436;6.544;2022-07-29T10:43:27;7.40;;;4.70;;
14116;SDS011;7137;51.436;6.544;2022-07-29T10:46:34;7.57;;;4.10;;
14116;SDS011;7137;51.436;6.544;2022-07-29T10:49:37;5.90;;;3.70;;
14116;SDS011;7137;51.436;6.544;2022-07-29T10:52:55;7.73;;;3.93;;
14116;SDS011;7137;51.436;6.544;2022-07-29T10:55:57;5.17;;;3.23;;
14116;SDS011;7137;51.436;6.544;2022-07-29T11:02:42;6.27;;;3.80;;
14116;SDS011;7137;51.436;6.544;2022-07-29T11:05:51;5.47;;;2.97;;
14116;SDS011;7137;51.436;6.544;2022-07-29T11:09:14;5.33;;;3.10;;
14116;SDS011;7137;51.436;6.544;2022-07-29T11:15:55;5.37;;;2.90;;
14116;SDS011;7137;51.436;6.544;2022-07-29T11:22:32;6.47;;;2.70;;
14116;SDS011;7137;51.436;6.544;2022-07-29T11:25:34;7.13;;;2.77;;
14116;SDS011;7137;51.436;6.544;2022-07-29T11:28:35;5.53;;;2.77;;
14116;SDS011;7137;51.436;6.544;2022-07-29T11:31:43;6.80;;;3.03;;
14116;SDS011;7137;51.436;6.544;2022-07-29T11:34:48;6.20;;;3.10;;
14116;SDS011;7137;51.436;6.544;2022-07-29T11:41:26;6.07;;;2.90;;
14116;SDS011;7137;51.436;6.544;2022-07-29T11:47:56;4.73;;;2.70;;
14116;SDS011;7137;51.436;6.544;2022-07-29T11:50:59;5.37;;;2.50;;
14116;SDS011;7137;51.436;6.544;2022-07-29T11:54:01;6.30;;;3.00;;
14116;SDS011;7137;51.436;6.544;2022-07-29T11:57:03;8.07;;;3.40;;
14116;SDS011;7137;51.436;6.544;2022-07-29T12:00:08;6.30;;;2.90;;
14116;SDS011;7137;51.436;6.544;2022-07-29T12:03:22;8.60;;;3.70;;
14116;SDS011;7137;51.436;6.544;2022-07-29T12:06:25;10.00;;;3.10;;
14116;SDS011;7137;51.436;6.544;2022-07-29T12:09:26;5.07;;;3.20;;
14116;SDS011;7137;51.436;6.544;2022-07-29T12:12:28;6.00;;;3.33;;
14116;SDS011;7137;51.436;6.544;2022-07-29T12:15:30;5.03;;;3.10;;
14116;SDS011;7137;51.436;6.544;2022-07-29T12:18:33;8.40;;;3.37;;
14116;SDS011;7137;51.436;6.544;2022-07-29T12:21:43;5.83;;;3.27;;
14116;SDS011;7137;51.436;6.544;2022-07-29T12:24:45;5.03;;;2.90;;
14116;SDS011;7137;51.436;6.544;2022-07-29T12:27:47;7.37;;;3.47;;
14116;SDS011;7137;51.436;6.544;2022-07-29T12:30:49;6.93;;;3.20;;
14116;SDS011;7137;51.436;6.544;2022-07-29T12:33:52;6.73;;;3.33;;
14116;SDS011;7137;51.436;6.544;2022-07-29T12:36:54;5.57;;;2.90;;
14116;SDS011;7137;51.436;6.544;2022-07-29T12:39:56;5.37;;;3.40;;
14116;SDS011;7137;51.436;6.544;2022-07-29T12:43:04;7.87;;;2.80;;
14116;SDS011;7137;51.436;6.544;2022-07-29T12:46:12;5.37;;;2.53;;
14116;SDS011;7137;51.436;6.544;2022-07-29T12:49:22;5.10;;;3.00;;
14116;SDS011;7137;51.436;6.544;2022-07-29T12:52:24;5.97;;;2.60;;
14116;SDS011;7137;51.436;6.544;2022-07-29T12:55:40;5.63;;;2.20;;
14116;SDS011;7137;51.436;6.544;2022-07-29T12:58:43;4.67;;;2.13;;
14116;SDS011;7137;51.436;6.544;2022-07-29T13:01:45;4.77;;;2.47;;
14116;SDS011;7137;51.436;6.544;2022-07-29T13:04:56;4.30;;;2.10;;
14116;SDS011;7137;51.436;6.544;2022-07-29T13:08:09;5.70;;;2.40;;
14116;SDS011;7137;51.436;6.544;2022-07-29T13:14:29;7.00;;;2.40;;
14116;SDS011;7137;51.436;6.544;2022-07-29T13:17:32;3.97;;;2.03;;
14116;SDS011;7137;51.436;6.544;2022-07-29T13:20:43;5.70;;;2.20;;
14116;SDS011;7137;51.436;6.544;2022-07-29T13:23:45;4.70;;;2.23;;
14116;SDS011;7137;51.436;6.544;2022-07-29T13:26:46;7.37;;;2.30;;
14116;SDS011;7137;51.436;6.544;2022-07-29T13:29:48;4.73;;;2.10;;
14116;SDS011;7137;51.436;6.544;2022-07-29T13:32:51;6.07;;;2.10;;
14116;SDS011;7137;51.436;6.544;2022-07-29T13:35:56;6.43;;;1.83;;
14116;SDS011;7137;51.436;6.544;2022-07-29T13:38:57;4.67;;;1.93;;
14116;SDS011;7137;51.436;6.544;2022-07-29T13:42:01;5.03;;;2.23;;
14116;SDS011;7137;51.436;6.544;2022-07-29T13:45:03;3.73;;;2.20;;
14116;SDS011;7137;51.436;6.544;2022-07-29T13:48:06;3.83;;;1.93;;
14116;SDS011;7137;51.436;6.544;2022-07-29T13:51:09;4.77;;;2.20;;
14116;SDS011;7137;51.436;6.544;2022-07-29T13:54:11;5.47;;;2.47;;
14116;SDS011;7137;51.436;6.544;2022-07-29T13:57:13;5.10;;;2.50;;
14116;SDS011;7137;51.436;6.544;2022-07-29T14:00:15;4.47;;;2.20;;
14116;SDS011;7137;51.436;6.544;2022-07-29T14:03:18;4.43;;;2.20;;
14116;SDS011;7137;51.436;6.544;2022-07-29T14:06:21;5.00;;;2.63;;
14116;SDS011;7137;51.436;6.544;2022-07-29T14:09:23;4.27;;;2.70;;
14116;SDS011;7137;51.436;6.544;2022-07-29T14:12:24;5.27;;;2.30;;
14116;SDS011;7137;51.436;6.544;2022-07-29T14:15:26;4.57;;;2.30;;
14116;SDS011;7137;51.436;6.544;2022-07-29T14:18:27;4.90;;;2.20;;
14116;SDS011;7137;51.436;6.544;2022-07-29T14:21:30;5.60;;;2.30;;
14116;SDS011;7137;51.436;6.544;2022-07-29T14:24:32;6.57;;;2.50;;
14116;SDS011;7137;51.436;6.544;2022-07-29T14:27:34;4.33;;;2.60;;
14116;SDS011;7137;51.436;6.544;2022-07-29T14:30:36;7.00;;;2.70;;
14116;SDS011;7137;51.436;6.544;2022-07-29T14:33:37;4.40;;;2.40;;
14116;SDS011;7137;51.436;6.544;2022-07-29T14:36:40;4.93;;;2.20;;
14116;SDS011;7137;51.436;6.544;2022-07-29T14:39:42;5.33;;;2.57;;
14116;SDS011;7137;51.436;6.544;2022-07-29T14:42:43;6.53;;;4.07;;
14116;SDS011;7137;51.436;6.544;2022-07-29T14:45:45;5.73;;;2.67;;
14116;SDS011;7137;51.436;6.544;2022-07-29T14:48:46;5.93;;;2.70;;
14116;SDS011;7137;51.436;6.544;2022-07-29T14:51:49;6.67;;;2.87;;
14116;SDS011;7137;51.436;6.544;2022-07-29T14:54:51;5.07;;;2.63;;
14116;SDS011;7137;51.436;6.544;2022-07-29T14:57:52;4.93;;;2.70;;
14116;SDS011;7137;51.436;6.544;2022-07-29T15:00:54;6.30;;;2.80;;
14116;SDS011;7137;51.436;6.544;2022-07-29T15:03:56;6.27;;;3.23;;
14116;SDS011;7137;51.436;6.544;2022-07-29T15:06:59;5.67;;;2.50;;
14116;SDS011;7137;51.436;6.544;2022-07-29T15:10:01;5.13;;;2.60;;
14116;SDS011;7137;51.436;6.544;2022-07-29T15:13:04;6.73;;;2.60;;
14116;SDS011;7137;51.436;6.544;2022-07-29T15:16:05;5.87;;;2.60;;
14116;SDS011;7137;51.436;6.544;2022-07-29T15:19:07;4.93;;;2.00;;
14116;SDS011;7137;51.436;6.544;2022-07-29T15:22:10;6.17;;;2.10;;
14116;SDS011;7137;51.436;6.544;2022-07-29T15:25:12;4.50;;;2.07;;
14116;SDS011;7137;51.436;6.544;2022-07-29T15:28:13;4.27;;;2.00;;
14116;SDS011;7137;51.436;6.544;2022-07-29T15:31:15;4.30;;;1.90;;
14116;SDS011;7137;51.436;6.544;2022-07-29T15:34:18;4.43;;;1.90;;
14116;SDS011;7137;51.436;6.544;2022-07-29T15:37:24;7.83;;;2.40;;
14116;SDS011;7137;51.436;6.544;2022-07-29T15:40:25;4.43;;;2.10;;
14116;SDS011;7137;51.436;6.544;2022-07-29T15:43:27;5.23;;;1.90;;
14116;SDS011;7137;51.436;6.544;2022-07-29T15:46:29;4.47;;;2.17;;
14116;SDS011;7137;51.436;6.544;2022-07-29T15:49:48;4.40;;;2.33;;
14116;SDS011;7137;51.436;6.544;2022-07-29T15:52:51;4.13;;;1.80;;
14116;SDS011;7137;51.436;6.544;2022-07-29T15:55:52;6.17;;;2.03;;
14116;SDS011;7137;51.436;6.544;2022-07-29T15:58:54;5.87;;;1.83;;
14116;SDS011;7137;51.436;6.544;2022-07-29T16:01:56;4.67;;;2.00;;
14116;SDS011;7137;51.436;6.544;2022-07-29T16:04:58;5.43;;;1.93;;
14116;SDS011;7137;51.436;6.544;2022-07-29T16:08:01;4.53;;;1.80;;
14116;SDS011;7137;51.436;6.544;2022-07-29T16:11:02;3.87;;;1.70;;
14116;SDS011;7137;51.436;6.544;2022-07-29T16:14:04;5.00;;;1.70;;
14116;SDS011;7137;51.436;6.544;2022-07-29T16:17:06;3.47;;;1.63;;
14116;SDS011;7137;51.436;6.544;2022-07-29T16:20:08;3.63;;;1.63;;
14116;SDS011;7137;51.436;6.544;2022-07-29T16:23:11;5.53;;;1.90;;
14116;SDS011;7137;51.436;6.544;2022-07-29T16:26:14;7.70;;;1.90;;
14116;SDS011;7137;51.436;6.544;2022-07-29T16:29:16;6.53;;;2.00;;
14116;SDS011;7137;51.436;6.544;2022-07-29T16:32:18;7.73;;;2.43;;
14116;SDS011;7137;51.436;6.544;2022-07-29T16:35:20;4.37;;;1.80;;
14116;SDS011;7137;51.436;6.544;2022-07-29T16:38:23;5.80;;;2.00;;
14116;SDS011;7137;51.436;6.544;2022-07-29T16:41:24;4.07;;;1.60;;
14116;SDS011;7137;51.436;6.544;2022-07-29T16:44:26;4.60;;;1.90;;
14116;SDS011;7137;51.436;6.544;2022-07-29T16:47:28;4.23;;;2.10;;
14116;SDS011;7137;51.436;6.544;2022-07-29T16:50:30;9.93;;;6.00;;
14116;SDS011;7137;51.436;6.544;2022-07-29T16:53:37;4.93;;;2.60;;
14116;SDS011;7137;51.436;6.544;2022-07-29T16:56:38;5.17;;;2.80;;
14116;SDS011;7137;51.436;6.544;2022-07-29T16:59:41;3.37;;;1.80;;
14116;SDS011;7137;51.436;6.544;2022-07-29T17:02:42;5.30;;;2.40;;
14116;SDS011;7137;51.436;6.544;2022-07-29T17:05:44;3.37;;;1.90;;
14116;SDS011;7137;51.436;6.544;2022-07-29T17:08:47;3.57;;;1.90;;
14116;SDS011;7137;51.436;6.544;2022-07-29T17:11:49;4.37;;;1.80;;
14116;SDS011;7137;51.436;6.544;2022-07-29T17:14:52;5.73;;;3.23;;
14116;SDS011;7137;51.436;6.544;2022-07-29T17:17:54;5.30;;;2.33;;
14116;SDS011;7137;51.436;6.544;2022-07-29T17:20:55;4.77;;;2.03;;
14116;SDS011;7137;51.436;6.544;2022-07-29T17:23:58;5.03;;;2.20;;
14116;SDS011;7137;51.436;6.544;2022-07-29T17:27:00;2.83;;;1.93;;
14116;SDS011;7137;51.436;6.544;2022-07-29T17:30:02;5.97;;;1.90;;
14116;SDS011;7137;51.436;6.544;2022-07-29T17:33:04;4.93;;;2.10;;
14116;SDS011;7137;51.436;6.544;2022-07-29T17:36:06;3.73;;;2.00;;
14116;SDS011;7137;51.436;6.544;2022-07-29T17:39:28;5.77;;;2.13;;
14116;SDS011;7137;51.436;6.544;2022-07-29T17:42:45;4.20;;;2.20;;
14116;SDS011;7137;51.436;6.544;2022-07-29T17:45:46;4.20;;;1.93;;
14116;SDS011;7137;51.436;6.544;2022-07-29T17:48:47;4.07;;;2.07;;
14116;SDS011;7137;51.436;6.544;2022-07-29T17:51:49;4.90;;;2.33;;
14116;SDS011;7137;51.436;6.544;2022-07-29T17:54:52;3.73;;;1.97;;
14116;SDS011;7137;51.436;6.544;2022-07-29T17:57:54;4.27;;;2.23;;
14116;SDS011;7137;51.436;6.544;2022-07-29T18:00:55;4.50;;;2.17;;
14116;SDS011;7137;51.436;6.544;2022-07-29T18:03:57;3.93;;;1.87;;
14116;SDS011;7137;51.436;6.544;2022-07-29T18:06:59;6.00;;;2.47;;
14116;SDS011;7137;51.436;6.544;2022-07-29T18:10:02;3.67;;;2.00;;
14116;SDS011;7137;51.436;6.544;2022-07-29T18:13:04;4.73;;;2.30;;
14116;SDS011;7137;51.436;6.544;2022-07-29T18:16:06;4.70;;;2.30;;
14116;SDS011;7137;51.436;6.544;2022-07-29T18:19:08;6.37;;;2.27;;
14116;SDS011;7137;51.436;6.544;2022-07-29T18:22:09;5.37;;;2.10;;
14116;SDS011;7137;51.436;6.544;2022-07-29T18:25:13;4.67;;;2.37;;
14116;SDS011;7137;51.436;6.544;2022-07-29T18:28:15;4.77;;;2.17;;
14116;SDS011;7137;51.436;6.544;2022-07-29T18:31:16;5.33;;;2.33;;
14116;SDS011;7137;51.436;6.544;2022-07-29T18:34:19;6.07;;;2.30;;
14116;SDS011;7137;51.436;6.544;2022-07-29T18:37:20;4.33;;;2.37;;
14116;SDS011;7137;51.436;6.544;2022-07-29T18:40:23;4.40;;;2.40;;
14116;SDS011;7137;51.436;6.544;2022-07-29T18:43:25;4.93;;;2.43;;
14116;SDS011;7137;51.436;6.544;2022-07-29T18:46:27;4.90;;;2.23;;
14116;SDS011;7137;51.436;6.544;2022-07-29T18:49:28;4.47;;;2.60;;
14116;SDS011;7137;51.436;6.544;2022-07-29T18:52:30;4.97;;;2.30;;
14116;SDS011;7137;51.436;6.544;2022-07-29T18:55:33;4.67;;;2.10;;
14116;SDS011;7137;51.436;6.544;2022-07-29T18:58:35;5.03;;;2.33;;
14116;SDS011;7137;51.436;6.544;2022-07-29T19:01:37;4.77;;;2.13;;
14116;SDS011;7137;51.436;6.544;2022-07-29T19:04:39;5.77;;;2.40;;
14116;SDS011;7137;51.436;6.544;2022-07-29T19:07:40;5.17;;;2.13;;
14116;SDS011;7137;51.436;6.544;2022-07-29T19:10:43;5.73;;;2.30;;
14116;SDS011;7137;51.436;6.544;2022-07-29T19:13:45;5.13;;;2.17;;